Terminal Aerodrome Forecast
Issued by NWS

Home | Current Version | Previous Version | Text Only | Print | Product List | Glossary On
Versions: 1 2 3 4 5 6 7 8 9 10 11 12 13 14 15 16 17 18 19
000
FTUS45 KRIW 242300
TAFCOD
TAF
KCOD 242325Z 2500/2524 04012KT P6SM BKN110
     FM250200 25014G20KT P6SM SCT250
     FM250400 20010KT P6SM SKC
     FM251800 11007KT P6SM SCT090
      AMD LTD TO CLD VIS AND WIND=

USA.gov is the U.S. government's official web portal to all federal, state and local government web resources and services.